Time;durP1;ratioP1;P1;durP2;ratioP2;P2;SDS_P1;SDS_P2;PMS_P1;PMS_P2;Temp;Humidity;BMP_temperature;BMP_pressure;BME280_temperature;BME280_humidity;BME280_pressure;Samples;Min_cycle;Max_cycle;Signal;HPM_P1;HPM_P2
2023/09/26 00:00:23;;;;;;;11.80;4.97;;;;;;;20.45;75.29;95177.66;5070047;28;20209;-71
2023/09/26 00:02:50;;;;;;;11.52;4.10;;;;;;;20.38;75.81;95183.25;5069484;28;20546;-71
2023/09/26 00:05:16;;;;;;;13.98;4.57;;;;;;;20.40;75.60;95183.00;5069083;28;20409;-71
2023/09/26 00:07:42;;;;;;;9.65;4.50;;;;;;;20.25;76.71;95179.16;5067567;28;20406;-71
2023/09/26 00:10:12;;;;;;;10.52;4.88;;;;;;;20.19;76.50;95176.75;5069233;28;20410;-71
2023/09/26 00:12:38;;;;;;;10.23;4.68;;;;;;;20.23;76.64;95177.84;5067324;28;20414;-71
2023/09/26 00:15:04;;;;;;;7.50;4.40;;;;;;;20.28;76.21;95172.50;5068065;28;20519;-71
2023/09/26 00:17:29;;;;;;;6.18;4.35;;;;;;;20.15;76.68;95162.31;5066996;28;20280;-71
2023/09/26 00:19:55;;;;;;;11.60;4.38;;;;;;;20.06;76.79;95151.34;5068222;28;20184;-71
2023/09/26 00:22:20;;;;;;;10.13;4.20;;;;;;;20.13;76.93;95167.13;5067454;28;20426;-71
2023/09/26 00:24:46;;;;;;;10.57;5.65;;;;;;;20.05;76.65;95168.44;5069546;28;20205;-71
2023/09/26 00:27:12;;;;;;;9.73;4.40;;;;;;;19.92;76.34;95148.31;5068504;28;20429;-71
2023/09/26 00:29:37;;;;;;;11.13;4.20;;;;;;;19.78;76.67;95165.91;5067906;28;20493;-71
2023/09/26 00:32:04;;;;;;;9.23;4.18;;;;;;;19.77;77.09;95166.97;5068048;28;20453;-70
2023/09/26 00:34:29;;;;;;;10.50;4.10;;;;;;;19.77;76.66;95158.16;5066755;28;20950;-71
2023/09/26 00:36:57;;;;;;;6.97;4.10;;;;;;;19.88;76.31;95173.19;5068152;28;20437;-71
2023/09/26 00:39:23;;;;;;;10.15;3.78;;;;;;;19.84;74.96;95156.84;5069106;28;20180;-70
2023/09/26 00:41:48;;;;;;;8.43;4.47;;;;;;;19.84;74.28;95167.53;5068114;28;20496;-71
2023/09/26 00:44:13;;;;;;;10.03;4.30;;;;;;;19.78;74.49;95162.44;5068638;28;20787;-70
2023/09/26 00:46:40;;;;;;;9.60;3.83;;;;;;;19.83;72.18;95165.94;5068167;28;20421;-71
2023/09/26 00:49:06;;;;;;;7.15;3.50;;;;;;;19.83;71.72;95160.59;5069276;28;20174;-71
2023/09/26 00:51:33;;;;;;;11.10;3.70;;;;;;;19.84;70.69;95164.06;5068444;28;20475;-71
2023/09/26 00:53:59;;;;;;;8.13;3.25;;;;;;;19.74;70.07;95164.00;5067772;28;20429;-71
2023/09/26 00:56:25;;;;;;;12.77;3.85;;;;;;;19.68;70.01;95165.06;5068109;28;20420;-70
2023/09/26 00:58:51;;;;;;;11.33;3.60;;;;;;;19.68;68.72;95167.72;5068361;28;20433;-71
2023/09/26 01:01:24;;;;;;;13.30;3.60;;;;;;;19.62;68.67;95164.22;5067798;28;20417;-71
2023/09/26 01:03:49;;;;;;;12.98;4.07;;;;;;;19.73;67.94;95171.22;5067915;28;20421;-71
2023/09/26 01:06:15;;;;;;;10.25;3.75;;;;;;;19.87;67.50;95171.56;5068412;28;20494;-71
2023/09/26 01:08:41;;;;;;;7.30;3.10;;;;;;;19.74;67.03;95164.00;5068937;28;20417;-71
2023/09/26 01:11:08;;;;;;;5.75;3.50;;;;;;;19.69;67.70;95167.47;5068953;28;20463;-71
2023/09/26 01:13:33;;;;;;;8.98;3.97;;;;;;;19.74;67.51;95170.16;5068077;28;20429;-71
2023/09/26 01:16:13;;;;;;;7.65;3.22;;;;;;;19.68;67.75;95163.19;5069080;28;20174;-71
2023/09/26 01:18:38;;;;;;;10.52;3.58;;;;;;;19.51;67.60;95127.84;5067599;28;20437;-71
2023/09/26 01:21:03;;;;;;;12.05;3.97;;;;;;;19.62;68.50;95152.75;5068864;28;20257;-70
2023/09/26 01:23:29;;;;;;;12.00;4.17;;;;;;;19.63;68.15;95159.69;5068341;28;20434;-71
2023/09/26 01:25:55;;;;;;;6.53;3.47;;;;;;;19.47;68.90;95153.41;5067385;28;20528;-70
2023/09/26 01:28:21;;;;;;;7.03;3.35;;;;;;;19.42;69.40;95154.22;5067459;28;20174;-71
2023/09/26 01:30:46;;;;;;;10.10;3.57;;;;;;;19.41;69.39;95144.59;5067662;28;20831;-70
2023/09/26 01:33:16;;;;;;;8.85;3.28;;;;;;;19.47;69.91;95156.94;5068728;28;20181;-71
2023/09/26 01:35:41;;;;;;;11.85;4.13;;;;;;;19.44;70.56;95153.94;5067563;28;21057;-71
2023/09/26 01:38:07;;;;;;;14.75;3.30;;;;;;;19.29;71.40;95148.50;5068364;28;20289;-71
2023/09/26 01:40:32;;;;;;;8.67;3.77;;;;;;;19.43;70.81;95161.16;5068426;28;20410;-71
2023/09/26 01:42:58;;;;;;;6.70;3.97;;;;;;;19.52;71.29;95164.19;5067638;28;20426;-71
2023/09/26 01:45:24;;;;;;;8.93;4.05;;;;;;;19.56;71.25;95152.69;5069780;28;20393;-71
2023/09/26 01:47:51;;;;;;;12.65;3.63;;;;;;;19.57;71.03;95165.00;5072500;28;20548;-71
2023/09/26 01:50:18;;;;;;;10.37;3.77;;;;;;;19.56;70.29;95160.72;5071770;28;20471;-70
2023/09/26 01:52:45;;;;;;;12.40;3.90;;;;;;;19.56;69.31;95160.72;5070456;28;20421;-71
2023/09/26 01:55:21;;;;;;;9.45;3.30;;;;;;;19.48;69.55;95157.72;5070664;28;20209;-71
2023/09/26 01:57:48;;;;;;;9.20;3.75;;;;;;;19.47;69.58;95164.94;5069653;28;20436;-71
2023/09/26 02:00:15;;;;;;;10.17;3.60;;;;;;;19.46;69.15;95163.28;5071154;28;20868;-71
2023/09/26 02:02:46;;;;;;;9.30;4.07;;;;;;;19.51;69.54;95170.56;5069529;28;20434;-71
2023/09/26 02:05:14;;;;;;;10.90;4.13;;;;;;;19.64;69.19;95169.28;5070673;28;21886;-71
2023/09/26 02:07:39;;;;;;;10.43;3.47;;;;;;;19.58;68.86;95166.59;5070848;28;20413;-71
2023/09/26 02:10:06;;;;;;;13.07;4.23;;;;;;;19.53;68.83;95160.44;5070106;28;20402;-70
2023/09/26 02:12:34;;;;;;;14.35;4.28;;;;;;;19.61;68.45;95175.19;5069787;28;20532;-71
2023/09/26 02:15:01;;;;;;;14.37;3.60;;;;;;;19.56;67.85;95166.06;5071168;28;20405;-71
2023/09/26 02:17:27;;;;;;;11.23;4.00;;;;;;;19.51;67.92;95170.56;5071235;28;21016;-70
2023/09/26 02:19:52;;;;;;;13.70;4.30;;;;;;;19.51;67.82;95176.72;5070919;28;20529;-71
2023/09/26 02:22:18;;;;;;;8.50;3.47;;;;;;;19.56;67.03;95158.03;5070859;28;20815;-71
2023/09/26 02:24:43;;;;;;;12.95;3.65;;;;;;;19.63;66.34;95162.38;5071196;28;20899;-71
2023/09/26 02:27:09;;;;;;;11.03;3.67;;;;;;;19.69;65.35;95156.78;5070713;28;20441;-71
2023/09/26 02:29:35;;;;;;;9.00;3.67;;;;;;;19.81;64.67;95168.03;5070926;28;20414;-71
2023/09/26 02:32:00;;;;;;;11.30;3.50;;;;;;;19.72;64.98;95163.47;5070408;28;20487;-71
2023/09/26 02:34:26;;;;;;;12.68;3.65;;;;;;;19.68;64.67;95171.22;5070861;28;20500;-71
2023/09/26 02:36:51;;;;;;;15.33;3.47;;;;;;;19.62;63.92;95163.44;5070388;28;20428;-71
2023/09/26 02:39:17;;;;;;;11.77;3.60;;;;;;;19.54;64.66;95159.38;5070194;28;20416;-71
2023/09/26 02:41:43;;;;;;;9.10;3.58;;;;;;;19.42;64.83;95142.72;5069722;28;20483;-71
2023/09/26 02:44:08;;;;;;;12.35;3.63;;;;;;;19.53;65.23;95163.94;5070103;28;20948;-71
2023/09/26 02:46:33;;;;;;;11.80;3.47;;;;;;;19.47;65.02;95156.09;5069037;28;20405;-71
2023/09/26 02:49:00;;;;;;;11.13;3.53;;;;;;;19.53;63.54;95153.25;5067953;28;20402;-71
2023/09/26 02:51:26;;;;;;;14.73;3.33;;;;;;;19.47;63.52;95158.75;5069810;28;20452;-71
2023/09/26 02:53:52;;;;;;;13.77;3.78;;;;;;;19.47;62.93;95164.09;5068958;28;20432;-70
2023/09/26 02:56:18;;;;;;;11.75;3.55;;;;;;;19.39;63.02;95157.38;5069971;28;20409;-71
2023/09/26 02:58:43;;;;;;;9.53;3.47;;;;;;;19.52;62.70;95156.97;5069468;28;20521;-71
2023/09/26 03:01:14;;;;;;;9.30;3.30;;;;;;;19.43;63.06;95165.69;5070158;28;20841;-71
2023/09/26 03:03:40;;;;;;;9.20;3.33;;;;;;;19.36;63.19;95162.44;5069541;28;20421;-71
2023/09/26 03:06:05;;;;;;;15.07;3.85;;;;;;;19.28;63.27;95145.06;5070763;28;20437;-70
2023/09/26 03:08:30;;;;;;;11.35;3.50;;;;;;;19.43;63.36;95166.50;5070000;28;20466;-71
2023/09/26 03:10:58;;;;;;;10.48;3.15;;;;;;;19.39;63.39;95167.25;5070872;28;20628;-71
2023/09/26 03:13:24;;;;;;;13.45;3.85;;;;;;;19.41;63.68;95167.81;5069652;28;20892;-71
2023/09/26 03:15:56;;;;;;;11.50;3.53;;;;;;;19.57;62.65;95175.69;5069639;28;20505;-71
2023/09/26 03:18:21;;;;;;;7.97;3.30;;;;;;;19.51;62.72;95170.56;5069710;28;20445;-71
2023/09/26 03:20:48;;;;;;;9.75;3.47;;;;;;;19.41;62.97;95167.81;5068151;28;20798;-71
2023/09/26 03:23:14;;;;;;;9.73;3.55;;;;;;;19.55;62.63;95174.31;5069433;28;20432;-70
2023/09/26 03:25:39;;;;;;;12.02;3.22;;;;;;;19.55;63.01;95180.47;5070715;28;20178;-70
2023/09/26 03:28:05;;;;;;;11.17;3.97;;;;;;;19.53;63.60;95173.81;5069347;28;20501;-71
2023/09/26 03:30:30;;;;;;;13.82;3.88;;;;;;;19.51;63.15;95158.03;5069497;28;20766;-71
2023/09/26 03:32:56;;;;;;;7.97;3.63;;;;;;;19.65;63.72;95176.25;5069242;28;20456;-71
2023/09/26 03:35:21;;;;;;;11.83;4.23;;;;;;;19.63;63.99;95168.53;5068150;28;20421;-71
2023/09/26 03:37:46;;;;;;;9.83;3.70;;;;;;;19.64;64.30;95180.78;5069212;28;20527;-71
2023/09/26 03:40:12;;;;;;;12.67;3.60;;;;;;;19.47;64.97;95177.44;5069463;28;21277;-71
2023/09/26 03:42:37;;;;;;;10.37;3.30;;;;;;;19.57;63.93;95172.22;5069161;28;20410;-71
2023/09/26 03:45:03;;;;;;;12.60;4.00;;;;;;;19.56;64.14;95151.91;5069426;28;20500;-71
2023/09/26 03:47:28;;;;;;;12.40;3.13;;;;;;;19.68;64.09;95173.88;5069752;28;20475;-70
2023/09/26 03:49:54;;;;;;;10.00;3.53;;;;;;;19.67;64.17;95176.81;5069865;28;20414;-71
2023/09/26 03:52:19;;;;;;;9.13;3.30;;;;;;;19.56;64.51;95174.06;5069494;28;20413;-70
2023/09/26 03:54:45;;;;;;;13.35;3.50;;;;;;;19.57;65.04;95180.22;5069047;28;20413;-71
2023/09/26 03:57:10;;;;;;;13.30;4.00;;;;;;;19.59;65.05;95180.78;5068707;28;20425;-70
2023/09/26 03:59:35;;;;;;;9.40;3.80;;;;;;;19.50;65.08;95177.78;5068727;28;20466;-71
2023/09/26 04:02:01;;;;;;;10.50;3.85;;;;;;;19.55;65.17;95191.16;5069114;28;20418;-71
2023/09/26 04:04:26;;;;;;;12.52;3.47;;;;;;;19.57;65.57;95185.56;5069341;28;20420;-71
2023/09/26 04:06:52;;;;;;;12.43;4.23;;;;;;;19.42;65.43;95174.75;5067066;28;20429;-70
2023/09/26 04:09:17;;;;;;;12.35;3.85;;;;;;;19.42;65.90;95191.59;5067090;28;20910;-70
2023/09/26 04:11:43;;;;;;;11.33;4.07;;;;;;;19.24;66.21;95194.66;5068584;28;21002;-70
2023/09/26 04:14:09;;;;;;;14.48;3.72;;;;;;;19.29;66.26;95201.91;5068864;28;20483;-70
2023/09/26 04:16:34;;;;;;;11.17;3.53;;;;;;;19.37;65.76;95190.75;5068115;28;20492;-70
2023/09/26 04:18:59;;;;;;;11.43;3.90;;;;;;;19.30;65.22;95177.63;5068434;28;20425;-70
2023/09/26 04:21:25;;;;;;;12.95;3.47;;;;;;;19.37;64.54;95198.78;5068333;28;20417;-70
2023/09/26 04:23:50;;;;;;;12.23;3.33;;;;;;;19.37;65.00;95194.22;5068588;28;20430;-71
2023/09/26 04:26:17;;;;;;;10.43;3.60;;;;;;;19.42;64.76;95198.78;5068722;28;20816;-70
2023/09/26 04:28:44;;;;;;;15.18;3.60;;;;;;;19.33;63.98;95168.28;5068356;28;20410;-71
2023/09/26 04:31:13;;;;;;;20.70;4.25;;;;;;;19.27;64.35;95198.69;5068732;28;20410;-70
2023/09/26 04:33:39;;;;;;;15.48;3.35;;;;;;;19.31;64.76;95192.56;5069487;28;20239;-71
2023/09/26 04:36:04;;;;;;;11.70;3.63;;;;;;;19.39;64.38;95200.09;5068407;28;20413;-70
2023/09/26 04:38:30;;;;;;;10.53;3.60;;;;;;;19.32;64.52;95196.84;5066602;28;20426;-71
2023/09/26 04:40:55;;;;;;;11.30;4.37;;;;;;;19.33;64.48;95197.66;5067599;28;20460;-70
2023/09/26 04:43:21;;;;;;;9.07;3.80;;;;;;;19.26;64.82;95195.22;5068807;28;20190;-71
2023/09/26 04:45:47;;;;;;;9.00;3.25;;;;;;;19.07;65.20;95194.81;5069359;28;20178;-71
2023/09/26 04:48:13;;;;;;;11.05;3.55;;;;;;;19.01;65.30;95187.84;5069195;28;20548;-70
2023/09/26 04:50:38;;;;;;;8.75;2.80;;;;;;;18.92;65.81;95199.22;5067609;28;20178;-70
2023/09/26 04:53:04;;;;;;;17.33;3.85;;;;;;;18.85;65.87;95204.78;5068313;28;20598;-70
2023/09/26 04:55:29;;;;;;;17.05;3.60;;;;;;;18.89;65.41;95210.41;5067917;28;20263;-70
2023/09/26 04:57:54;;;;;;;15.05;3.90;;;;;;;18.94;65.50;95215.78;5069246;28;20753;-70
2023/09/26 05:00:20;;;;;;;14.50;4.20;;;;;;;18.91;65.75;95209.09;5068880;28;20209;-70
2023/09/26 05:02:49;;;;;;;8.82;3.42;;;;;;;19.00;65.38;95207.56;5068646;28;20254;-71
2023/09/26 05:05:15;;;;;;;10.98;3.63;;;;;;;19.20;64.89;95205.03;5068940;28;20182;-70
2023/09/26 05:07:44;;;;;;;10.15;3.45;;;;;;;19.38;64.62;95208.38;5068506;28;20177;-71
2023/09/26 05:10:11;;;;;;;14.02;3.38;;;;;;;19.71;63.99;95216.13;5068694;28;20903;-71
2023/09/26 05:12:40;;;;;;;8.18;3.50;;;;;;;20.41;61.50;95217.50;5069072;28;20180;-69
2023/09/26 05:15:09;;;;;;;16.13;4.68;;;;;;;21.21;59.23;95226.75;5069049;28;20182;-69
2023/09/26 05:17:34;;;;;;;21.80;4.03;;;;;;;22.55;56.42;95227.78;5068662;28;21563;-71
2023/09/26 05:19:59;;;;;;;12.35;3.72;;;;;;;23.74;53.03;95226.66;5073075;28;20236;-70
2023/09/26 05:22:25;;;;;;;15.10;4.53;;;;;;;25.21;49.14;95233.75;5075415;28;20224;-70
2023/09/26 05:24:50;;;;;;;12.02;3.35;;;;;;;26.35;46.08;95229.63;5075368;28;20255;-69
2023/09/26 05:27:15;;;;;;;10.35;3.33;;;;;;;27.22;44.28;95235.56;5075285;28;20256;-69
2023/09/26 05:29:41;;;;;;;16.55;4.32;;;;;;;26.27;44.53;95236.53;5074791;28;20178;-69
2023/09/26 05:32:07;;;;;;;9.38;3.53;;;;;;;24.06;49.49;95233.03;5075739;28;20192;-70
2023/09/26 05:34:35;;;;;;;10.38;3.20;;;;;;;22.90;53.09;95229.50;5075095;28;20204;-69
2023/09/26 05:37:00;;;;;;;15.18;4.20;;;;;;;23.70;51.17;95223.75;5073296;28;20560;-70
2023/09/26 05:39:25;;;;;;;12.48;4.15;;;;;;;24.14;50.10;95223.53;5074782;28;20178;-70
2023/09/26 05:41:51;;;;;;;10.48;3.20;;;;;;;25.11;47.91;95225.81;5073289;28;20253;-70
2023/09/26 05:44:17;;;;;;;10.20;3.05;;;;;;;26.08;44.91;95230.38;5074509;28;20182;-69
2023/09/26 05:46:43;;;;;;;11.40;3.78;;;;;;;26.74;43.41;95227.16;5074999;28;20562;-69
2023/09/26 05:49:08;;;;;;;9.82;3.22;;;;;;;27.38;42.09;95234.09;5074498;28;20204;-69
2023/09/26 05:51:34;;;;;;;8.80;3.30;;;;;;;27.52;41.49;95239.44;5075342;28;20257;-69
2023/09/26 05:53:59;;;;;;;12.23;2.80;;;;;;;28.54;39.65;95232.19;5075090;28;20651;-69
2023/09/26 05:56:27;;;;;;;11.13;3.47;;;;;;;28.33;39.77;95240.09;5075070;28;20174;-69
2023/09/26 05:58:53;;;;;;;11.82;3.88;;;;;;;27.82;40.79;95234.41;5075171;28;20202;-69
2023/09/26 06:01:18;;;;;;;9.98;3.30;;;;;;;26.26;43.67;95238.44;5074908;28;20181;-69
2023/09/26 06:03:44;;;;;;;9.45;3.53;;;;;;;27.42;41.73;95232.38;5075325;28;20189;-69
2023/09/26 06:06:09;;;;;;;12.35;3.22;;;;;;;28.05;39.36;95235.94;5074043;28;20182;-69
2023/09/26 06:08:34;;;;;;;14.07;3.65;;;;;;;28.40;39.28;95234.22;5074684;28;20173;-69
2023/09/26 06:11:02;;;;;;;12.63;2.92;;;;;;;28.97;37.92;95245.88;5074082;28;20231;-69
2023/09/26 06:13:27;;;;;;;10.02;2.95;;;;;;;28.98;37.65;95241.22;5074793;28;20577;-69
2023/09/26 06:15:53;;;;;;;13.32;2.75;;;;;;;27.03;41.15;95240.34;5074823;28;20193;-69
2023/09/26 06:18:18;;;;;;;10.15;3.70;;;;;;;26.02;43.99;95239.69;5074995;28;20198;-69
2023/09/26 06:20:44;;;;;;;14.25;3.63;;;;;;;27.17;41.75;95243.00;5074629;28;20182;-71
2023/09/26 06:23:09;;;;;;;11.70;3.55;;;;;;;27.92;40.49;95244.97;5074535;28;20226;-69
2023/09/26 06:25:35;;;;;;;17.77;3.45;;;;;;;27.39;40.92;95246.53;5074232;28;20288;-69
2023/09/26 06:28:00;;;;;;;10.70;3.35;;;;;;;27.51;41.36;95237.03;5074451;28;20170;-70
2023/09/26 06:30:26;;;;;;;12.75;3.72;;;;;;;29.30;37.97;95242.69;5073639;28;20185;-70
2023/09/26 06:32:52;;;;;;;10.98;3.63;;;;;;;28.78;37.92;95235.31;5071332;28;20180;-70
2023/09/26 06:35:17;;;;;;;13.18;3.88;;;;;;;29.23;37.54;95243.16;5071474;28;20261;-70
2023/09/26 06:37:43;;;;;;;12.77;3.58;;;;;;;29.59;36.65;95242.81;5071534;28;20353;-71
2023/09/26 06:40:09;;;;;;;11.32;3.45;;;;;;;30.44;35.92;95237.50;5071466;28;20182;-71
2023/09/26 06:42:34;;;;;;;17.40;3.35;;;;;;;30.52;35.15;95242.13;5070393;28;20213;-70
2023/09/26 06:44:59;;;;;;;11.63;4.28;;;;;;;29.45;36.31;95229.44;5071557;28;20189;-71
2023/09/26 06:47:26;;;;;;;6.90;3.30;;;;;;;29.30;36.95;95248.09;5071539;28;20175;-70
2023/09/26 06:49:52;;;;;;;10.00;2.92;;;;;;;28.26;38.97;95222.69;5071374;28;20204;-70
2023/09/26 06:52:18;;;;;;;17.05;3.50;;;;;;;26.96;41.94;95237.25;5070025;28;20186;-69
2023/09/26 06:54:44;;;;;;;11.50;3.40;;;;;;;27.35;42.02;95234.72;5071344;28;20178;-69
2023/09/26 06:57:09;;;;;;;16.60;3.85;;;;;;;27.16;42.13;95211.66;5071119;28;20202;-69
2023/09/26 06:59:36;;;;;;;8.32;3.40;;;;;;;28.02;42.08;95237.38;5071149;28;20198;-71
2023/09/26 07:02:02;;;;;;;9.57;3.83;;;;;;;27.91;40.90;95229.84;5071151;28;20208;-70
2023/09/26 07:04:27;;;;;;;11.25;3.05;;;;;;;28.30;39.85;95248.03;5069799;28;20529;-69
2023/09/26 07:06:53;;;;;;;11.00;3.33;;;;;;;27.79;41.39;95241.22;5071019;28;20193;-69
2023/09/26 07:09:20;;;;;;;12.35;3.78;;;;;;;27.69;41.19;95244.19;5070894;28;20532;-70
2023/09/26 07:11:47;;;;;;;11.70;3.28;;;;;;;27.82;41.56;95227.09;5070992;28;20206;-70
2023/09/26 07:14:12;;;;;;;11.80;3.40;;;;;;;27.76;41.15;95218.28;5070848;28;20190;-69
2023/09/26 07:16:38;;;;;;;17.45;3.75;;;;;;;28.00;41.67;95255.84;5071004;28;20246;-70
2023/09/26 07:19:04;;;;;;;11.05;3.22;;;;;;;26.84;43.52;95245.84;5069585;28;20201;-70
2023/09/26 07:21:29;;;;;;;12.88;3.35;;;;;;;25.51;46.03;95241.31;5070753;28;20270;-70
2023/09/26 07:23:54;;;;;;;17.92;4.68;;;;;;;24.80;48.09;95228.94;5070977;28;20210;-69
2023/09/26 07:26:20;;;;;;;18.80;3.70;;;;;;;25.27;47.59;95246.03;5070725;28;20193;-70
2023/09/26 07:28:47;;;;;;;17.98;3.70;;;;;;;24.55;48.81;95237.34;5070939;28;20181;-70
2023/09/26 07:31:17;;;;;;;26.50;4.03;;;;;;;23.90;50.77;95230.81;5070882;28;20282;-69
2023/09/26 07:33:43;;;;;;;19.45;4.82;;;;;;;23.90;50.77;95230.81;5069604;28;20167;-69
2023/09/26 07:36:09;;;;;;;11.25;3.53;;;;;;;24.05;50.78;95220.69;5070051;28;20188;-69
2023/09/26 07:38:35;;;;;;;11.35;3.40;;;;;;;23.73;51.31;95230.44;5070536;28;20198;-71
2023/09/26 07:41:01;;;;;;;8.45;3.95;;;;;;;24.13;51.34;95224.63;5070603;28;20174;-69
2023/09/26 07:43:32;;;;;;;12.60;3.35;;;;;;;24.39;49.75;95220.56;5069237;28;20182;-69
2023/09/26 07:46:09;;;;;;;12.13;4.05;;;;;;;24.55;48.88;95223.91;5067785;28;20178;-69
2023/09/26 07:48:35;;;;;;;22.98;3.90;;;;;;;24.68;48.67;95233.13;5066168;28;20193;-68
2023/09/26 07:51:02;;;;;;;10.45;3.47;;;;;;;24.42;49.27;95222.69;5068294;28;20185;-69
2023/09/26 07:53:29;;;;;;;15.07;3.70;;;;;;;24.56;48.45;95232.78;5069720;28;20319;-69
2023/09/26 07:55:58;;;;;;;15.73;2.70;;;;;;;24.40;49.31;95208.72;5070364;28;20691;-69
2023/09/26 07:58:23;;;;;;;16.02;3.22;;;;;;;24.40;48.11;95207.91;5068932;28;20202;-69
2023/09/26 08:00:49;;;;;;;11.75;3.03;;;;;;;24.26;49.22;95215.91;5069835;28;20182;-69
2023/09/26 08:03:14;;;;;;;19.98;2.88;;;;;;;24.65;49.24;95202.19;5068749;28;20265;-69
2023/09/26 08:05:40;;;;;;;8.68;3.65;;;;;;;24.82;47.98;95217.88;5069306;28;20185;-70
2023/09/26 08:08:06;;;;;;;16.40;3.85;;;;;;;24.55;47.82;95215.00;5069705;28;20175;-69
2023/09/26 08:10:36;;;;;;;12.70;3.88;;;;;;;24.32;48.60;95222.00;5068808;28;20205;-69
2023/09/26 08:13:01;;;;;;;15.45;3.58;;;;;;;24.66;48.22;95219.94;5067932;28;20174;-69
2023/09/26 08:15:31;;;;;;;10.32;3.05;;;;;;;24.76;46.47;95200.16;5068802;28;20186;-68
2023/09/26 08:17:56;;;;;;;20.02;3.90;;;;;;;24.97;45.96;95214.97;5068287;28;20659;-69
2023/09/26 08:20:23;;;;;;;15.15;3.72;;;;;;;24.48;47.60;95206.47;5069367;28;20170;-69
2023/09/26 08:22:49;;;;;;;14.13;3.83;;;;;;;24.86;46.75;95197.31;5068571;28;20225;-69
2023/09/26 08:25:14;;;;;;;12.02;4.03;;;;;;;24.96;45.25;95191.81;5068563;28;20232;-69
2023/09/26 08:27:40;;;;;;;17.17;3.47;;;;;;;24.61;46.41;95203.06;5068497;28;20232;-69
2023/09/26 08:30:08;;;;;;;6.63;3.20;;;;;;;24.14;47.72;95204.69;5067520;28;20205;-69
2023/09/26 08:32:33;;;;;;;12.95;3.28;;;;;;;24.35;48.04;95192.66;5068791;28;20273;-69
2023/09/26 08:34:58;;;;;;;9.25;3.35;;;;;;;24.65;47.35;95196.81;5068645;28;20261;-69
2023/09/26 08:37:24;;;;;;;16.58;3.58;;;;;;;24.96;46.48;95197.22;5068765;28;20195;-68
2023/09/26 08:39:51;;;;;;;10.98;3.83;;;;;;;24.91;46.52;95191.06;5068654;28;20693;-69
2023/09/26 08:42:26;;;;;;;9.20;3.33;;;;;;;24.19;47.20;95193.09;5069393;28;20179;-69
2023/09/26 08:44:51;;;;;;;8.73;3.10;;;;;;;24.51;48.94;95192.44;5063909;28;20182;-70
2023/09/26 08:47:17;;;;;;;10.57;3.70;;;;;;;25.16;46.12;95198.78;5068049;28;20231;-69
2023/09/26 08:49:44;;;;;;;11.45;2.80;;;;;;;25.26;44.85;95182.44;5069153;28;20652;-70
2023/09/26 08:52:09;;;;;;;14.00;3.40;;;;;;;25.60;43.81;95201.03;5068811;28;20202;-69
2023/09/26 08:54:35;;;;;;;6.25;3.28;;;;;;;25.17;43.87;95203.88;5068955;28;20210;-69
2023/09/26 08:57:01;;;;;;;9.43;3.33;;;;;;;24.68;44.83;95198.13;5068745;28;20185;-69
2023/09/26 08:59:28;;;;;;;6.60;2.35;;;;;;;24.22;45.52;95192.53;5069058;28;20181;-69
2023/09/26 09:01:55;;;;;;;4.82;2.33;;;;;;;24.34;45.80;95184.84;5068999;28;20231;-69
2023/09/26 09:04:21;;;;;;;8.95;2.90;;;;;;;24.49;45.19;95197.31;5068170;28;20175;-69
2023/09/26 09:06:47;;;;;;;9.77;3.50;;;;;;;24.75;44.74;95177.81;5068967;28;20181;-69
2023/09/26 09:09:13;;;;;;;9.02;2.70;;;;;;;25.12;44.10;95195.88;5068671;28;20183;-69
2023/09/26 09:11:39;;;;;;;7.10;3.13;;;;;;;24.76;45.08;95170.53;5069462;28;20277;-69
2023/09/26 09:14:05;;;;;;;4.75;2.40;;;;;;;24.85;44.28;95187.66;5069302;28;20328;-70
2023/09/26 09:16:33;;;;;;;11.60;4.10;;;;;;;24.43;44.81;95196.59;5069104;28;20186;-69
2023/09/26 09:18:59;;;;;;;9.25;3.13;;;;;;;24.31;45.78;95188.13;5068552;28;20214;-70
2023/09/26 09:21:32;;;;;;;6.65;2.65;;;;;;;24.37;45.78;95182.41;5069437;28;20177;-69
2023/09/26 09:24:07;;;;;;;12.88;3.28;;;;;;;24.65;45.22;95182.56;5067934;28;20202;-69
2023/09/26 09:26:37;;;;;;;8.98;3.03;;;;;;;24.27;45.50;95185.22;5068832;28;20189;-69
2023/09/26 09:29:22;;;;;;;8.85;3.05;;;;;;;23.93;46.17;95169.19;5066133;28;20166;-69
2023/09/26 09:31:49;;;;;;;8.65;3.08;;;;;;;24.20;46.04;95179.34;5067703;28;20602;-69
2023/09/26 09:34:19;;;;;;;10.00;3.30;;;;;;;24.44;45.21;95172.06;5068374;28;20600;-69
2023/09/26 09:36:44;;;;;;;12.68;2.95;;;;;;;24.46;45.57;95165.59;5066633;28;20178;-70
2023/09/26 09:39:10;;;;;;;8.57;2.85;;;;;;;24.52;45.87;95177.88;5066769;28;20272;-69
2023/09/26 09:41:41;;;;;;;9.65;2.70;;;;;;;24.58;45.56;95171.34;5064711;28;20243;-69
2023/09/26 09:44:07;;;;;;;11.95;2.63;;;;;;;24.72;45.24;95170.34;5065450;28;20564;-69
2023/09/26 09:46:35;;;;;;;13.75;3.22;;;;;;;24.70;45.82;95177.91;5066687;28;20178;-69
2023/09/26 09:49:02;;;;;;;11.73;3.25;;;;;;;24.61;46.12;95186.91;5066041;28;20178;-69
2023/09/26 09:51:28;;;;;;;9.82;2.67;;;;;;;24.23;46.18;95172.59;5068258;28;20174;-69
2023/09/26 09:53:54;;;;;;;13.98;3.90;;;;;;;24.35;46.72;95189.97;5067943;28;20705;-69
2023/09/26 09:56:24;;;;;;;6.88;3.42;;;;;;;24.38;46.60;95181.31;5068223;28;20170;-70
2023/09/26 09:58:51;;;;;;;6.60;3.53;;;;;;;24.54;47.12;95178.41;5068475;28;20202;-70
2023/09/26 10:01:20;;;;;;;11.57;3.40;;;;;;;24.39;47.49;95180.19;5068827;28;20185;-70
2023/09/26 10:03:53;;;;;;;13.20;2.90;;;;;;;24.30;46.99;95178.47;5067602;28;20181;-70
2023/09/26 10:06:18;;;;;;;16.27;3.80;;;;;;;23.91;48.15;95163.28;5068944;28;20174;-70
2023/09/26 10:08:47;;;;;;;11.85;3.80;;;;;;;24.09;48.85;95175.19;5071660;28;20178;-70
2023/09/26 10:11:13;;;;;;;9.02;3.40;;;;;;;24.01;49.01;95165.06;5071495;28;20286;-70
2023/09/26 10:13:40;;;;;;;12.75;3.42;;;;;;;23.76;48.69;95166.16;5071511;28;20696;-70
2023/09/26 10:16:15;;;;;;;15.63;3.70;;;;;;;23.80;49.84;95158.28;5071404;28;20223;-69
2023/09/26 10:18:43;;;;;;;10.80;3.42;;;;;;;23.56;50.81;95159.09;5071188;28;20709;-69
2023/09/26 10:21:31;;;;;;;15.60;3.85;;;;;;;23.58;50.24;95156.13;5071264;28;20587;-69
2023/09/26 10:24:23;;;;;;;7.15;2.92;;;;;;;23.60;50.44;95162.84;5065642;28;20201;-69
2023/09/26 10:26:50;;;;;;;11.95;3.33;;;;;;;23.51;50.63;95150.28;5066335;28;20300;-69
2023/09/26 10:29:30;;;;;;;9.50;3.80;;;;;;;23.41;50.95;95151.16;5071091;28;20254;-69
2023/09/26 10:32:04;;;;;;;12.82;3.72;;;;;;;23.38;51.77;95142.84;5069875;28;20559;-69
2023/09/26 10:34:34;;;;;;;18.33;4.80;;;;;;;23.41;51.09;95137.72;5071003;28;20182;-69
2023/09/26 10:37:00;;;;;;;15.60;4.10;;;;;;;23.23;51.52;95149.19;5069754;28;20617;-69
2023/09/26 10:39:32;;;;;;;17.80;3.95;;;;;;;23.11;51.80;95140.69;5070914;28;20193;-69
2023/09/26 10:42:18;;;;;;;13.63;3.70;;;;;;;23.11;52.06;95136.13;5071227;28;20618;-69
2023/09/26 10:44:45;;;;;;;7.55;3.75;;;;;;;23.35;51.90;95136.19;5071471;28;20174;-69
2023/09/26 10:47:13;;;;;;;12.15;3.10;;;;;;;23.44;51.34;95139.06;5071305;28;20640;-69
2023/09/26 10:49:39;;;;;;;7.18;3.00;;;;;;;23.52;50.99;95133.88;5071654;28;20206;-70
2023/09/26 10:52:08;;;;;;;8.30;4.45;;;;;;;23.56;51.28;95131.41;5071351;28;20178;-69
2023/09/26 10:54:35;;;;;;;8.65;3.85;;;;;;;23.62;51.01;95143.69;5071463;28;20671;-69
2023/09/26 10:57:01;;;;;;;7.95;3.58;;;;;;;23.55;51.03;95119.84;5071324;28;20193;-69
2023/09/26 10:59:30;;;;;;;8.15;4.10;;;;;;;23.67;50.98;95130.22;5070931;28;20178;-69
2023/09/26 11:01:58;;;;;;;12.18;3.78;;;;;;;23.83;51.38;95141.59;5069250;28;20273;-70
2023/09/26 11:04:28;;;;;;;15.20;4.03;;;;;;;23.82;50.52;95126.56;5070655;28;20562;-69
2023/09/26 11:07:00;;;;;;;8.90;3.25;;;;;;;23.77;50.91;95135.50;5070550;28;20182;-69
2023/09/26 11:09:26;;;;;;;12.10;3.92;;;;;;;23.64;51.19;95118.16;5070576;28;20265;-70
2023/09/26 11:11:55;;;;;;;11.07;3.78;;;;;;;23.51;52.05;95116.16;5070569;28;20255;-70
2023/09/26 11:14:20;;;;;;;9.88;3.42;;;;;;;23.52;51.99;95115.06;5070536;28;20175;-70
2023/09/26 11:16:46;;;;;;;25.60;4.25;;;;;;;23.56;51.99;95109.91;5070047;28;20191;-70
2023/09/26 11:19:11;;;;;;;14.70;4.00;;;;;;;23.55;51.93;95111.00;5070411;28;20210;-70
2023/09/26 11:21:37;;;;;;;14.30;3.45;;;;;;;23.50;51.85;95111.06;5069919;28;20674;-70
2023/09/26 11:24:22;;;;;;;15.05;3.97;;;;;;;23.43;51.80;95118.63;5070218;28;20636;-71